Time;durP1;ratioP1;P1;durP2;ratioP2;P2;SDS_P1;SDS_P2;PMS_P1;PMS_P2;Temp;Humidity;BMP_temperature;BMP_pressure;BME280_temperature;BME280_humidity;BME280_pressure;Samples;Min_cycle;Max_cycle;Signal;HPM_P1;HPM_P2
2024/01/02 00:00:54;;;;;;;8.85;4.10;;;6.40;99.90;;;;;;5057651;28;20060;-62
2024/01/02 00:03:19;;;;;;;18.17;6.05;;;6.50;99.90;;;;;;5045937;28;20296;-63
2024/01/02 00:05:45;;;;;;;15.02;6.32;;;6.50;99.90;;;;;;5030188;28;20117;-63
2024/01/02 00:08:11;;;;;;;10.50;3.45;;;6.50;99.90;;;;;;5030896;28;20040;-62
2024/01/02 00:10:36;;;;;;;17.80;5.57;;;6.50;99.90;;;;;;5056047;28;20041;-62
2024/01/02 00:13:02;;;;;;;15.48;4.30;;;6.50;99.90;;;;;;5043955;28;20041;-62
2024/01/02 00:15:28;;;;;;;14.85;4.30;;;6.50;99.90;;;;;;5028195;28;20041;-62
2024/01/02 00:17:54;;;;;;;11.57;3.42;;;6.60;99.90;;;;;;5042704;28;20047;-62
2024/01/02 00:20:19;;;;;;;11.07;3.90;;;6.60;99.90;;;;;;5044518;28;20037;-63
2024/01/02 00:22:45;;;;;;;11.30;3.20;;;6.60;99.90;;;;;;5051683;28;20417;-62
2024/01/02 00:25:11;;;;;;;13.63;3.60;;;6.60;99.90;;;;;;5019618;28;20091;-62
2024/01/02 00:27:37;;;;;;;14.70;3.15;;;6.60;99.90;;;;;;5045571;28;20473;-62
2024/01/02 00:30:03;;;;;;;16.02;3.80;;;6.60;99.90;;;;;;5026989;28;20081;-62
2024/01/02 00:32:28;;;;;;;10.00;3.35;;;6.60;99.90;;;;;;5045205;28;20433;-63
2024/01/02 00:34:54;;;;;;;13.32;3.35;;;6.60;99.90;;;;;;5049858;28;20040;-62
2024/01/02 00:37:20;;;;;;;14.65;3.00;;;6.60;99.90;;;;;;5032082;28;20433;-63
2024/01/02 00:39:46;;;;;;;11.15;3.40;;;6.60;99.90;;;;;;5044797;28;20467;-62
2024/01/02 00:42:11;;;;;;;11.73;3.05;;;6.70;99.90;;;;;;5036434;28;20037;-62
2024/01/02 00:44:37;;;;;;;11.38;3.00;;;6.70;99.90;;;;;;5046029;28;20075;-63
2024/01/02 00:47:03;;;;;;;10.98;3.30;;;6.70;99.90;;;;;;5045174;28;20041;-62
2024/01/02 00:49:28;;;;;;;13.57;3.95;;;6.70;99.90;;;;;;5042991;28;20474;-62
2024/01/02 00:51:54;;;;;;;12.30;3.03;;;6.70;99.90;;;;;;5028022;28;20041;-63
2024/01/02 00:54:20;;;;;;;13.13;2.95;;;6.80;99.90;;;;;;5037627;28;20486;-63
2024/01/02 00:56:45;;;;;;;17.13;2.90;;;6.80;99.90;;;;;;5057329;28;20111;-62
2024/01/02 00:59:13;;;;;;;9.55;3.10;;;6.80;99.90;;;;;;5047889;28;20622;-62
2024/01/02 01:01:39;;;;;;;12.18;2.95;;;6.80;99.90;;;;;;5027671;28;20028;-63
2024/01/02 01:04:04;;;;;;;8.93;2.83;;;6.80;99.90;;;;;;5046802;28;20568;-62
2024/01/02 01:06:30;;;;;;;10.68;3.33;;;6.80;99.90;;;;;;5031729;28;20040;-62
2024/01/02 01:08:56;;;;;;;17.33;3.33;;;6.80;99.90;;;;;;5045925;28;20721;-61
2024/01/02 01:11:21;;;;;;;12.60;3.22;;;6.90;99.90;;;;;;5030075;28;20048;-62
2024/01/02 01:13:47;;;;;;;11.30;3.17;;;6.80;99.90;;;;;;5048754;28;20078;-62
2024/01/02 01:16:13;;;;;;;16.83;4.22;;;6.90;99.90;;;;;;5040683;28;20033;-62
2024/01/02 01:18:38;;;;;;;9.35;2.60;;;6.90;99.90;;;;;;5030090;28;20658;-63
2024/01/02 01:21:04;;;;;;;13.25;4.18;;;6.90;99.90;;;;;;5046428;28;20045;-62
2024/01/02 01:23:30;;;;;;;15.20;3.22;;;6.90;99.90;;;;;;5042735;28;20041;-62
2024/01/02 01:25:55;;;;;;;14.85;4.30;;;6.90;99.90;;;;;;5012467;28;20044;-63
2024/01/02 01:28:21;;;;;;;15.32;3.33;;;6.90;99.90;;;;;;5046524;28;20051;-63
2024/01/02 01:30:47;;;;;;;13.30;3.90;;;6.90;99.90;;;;;;5047307;28;20064;-62
2024/01/02 01:33:12;;;;;;;14.25;3.63;;;6.90;99.90;;;;;;5047191;28;20077;-63
2024/01/02 01:35:38;;;;;;;10.40;3.30;;;6.90;99.90;;;;;;5028174;28;20037;-62
2024/01/02 01:38:04;;;;;;;11.52;3.42;;;6.90;99.90;;;;;;5031528;28;20048;-62
2024/01/02 01:40:30;;;;;;;12.23;3.25;;;7.00;99.90;;;;;;5045768;28;20046;-62
2024/01/02 01:42:55;;;;;;;14.60;4.80;;;6.90;99.90;;;;;;5040293;28;20647;-63
2024/01/02 01:45:21;;;;;;;14.77;4.57;;;7.00;99.90;;;;;;5041018;28;20033;-62
2024/01/02 01:47:47;;;;;;;10.48;3.05;;;7.00;99.90;;;;;;5044543;28;20112;-62
2024/01/02 01:50:13;;;;;;;13.30;3.22;;;7.00;99.90;;;;;;5014170;28;20607;-63
2024/01/02 01:52:40;;;;;;;10.73;3.60;;;7.00;99.90;;;;;;5039208;28;20037;-63
2024/01/02 01:55:07;;;;;;;15.75;4.70;;;7.00;99.90;;;;;;5058416;28;20076;-62
2024/01/02 01:57:33;;;;;;;12.63;3.22;;;7.00;99.90;;;;;;5042716;28;20421;-62
2024/01/02 01:59:59;;;;;;;11.57;3.72;;;7.00;99.90;;;;;;5043844;28;20044;-63
2024/01/02 02:02:25;;;;;;;10.57;3.40;;;7.00;99.90;;;;;;5049177;28;20046;-62
2024/01/02 02:04:53;;;;;;;16.67;3.53;;;7.00;99.90;;;;;;5060146;28;20040;-62
2024/01/02 02:07:19;;;;;;;12.07;3.75;;;7.10;99.90;;;;;;5026283;28;20052;-61
2024/01/02 02:09:45;;;;;;;12.55;3.08;;;7.10;99.90;;;;;;5043937;28;20498;-63
2024/01/02 02:12:11;;;;;;;12.07;2.97;;;7.10;99.90;;;;;;5028324;28;20049;-62
2024/01/02 02:14:36;;;;;;;8.85;3.33;;;7.10;99.90;;;;;;5042696;28;20106;-62
2024/01/02 02:17:02;;;;;;;11.93;2.83;;;7.10;99.90;;;;;;5038723;28;20049;-62
2024/01/02 02:19:28;;;;;;;14.32;3.72;;;7.10;99.90;;;;;;5029097;28;20028;-63
2024/01/02 02:21:55;;;;;;;10.35;2.90;;;7.10;99.90;;;;;;5044778;28;20036;-63
2024/01/02 02:24:21;;;;;;;16.00;3.97;;;7.10;99.90;;;;;;5041436;28;20053;-62
2024/01/02 02:26:47;;;;;;;11.90;3.17;;;7.10;99.90;;;;;;5010137;28;20516;-62
2024/01/02 02:29:12;;;;;;;9.05;3.17;;;7.10;99.90;;;;;;5027885;28;20045;-63
2024/01/02 02:31:38;;;;;;;16.27;4.95;;;7.10;99.90;;;;;;5044343;28;20132;-63
2024/01/02 02:34:04;;;;;;;13.32;3.42;;;7.20;99.90;;;;;;5044222;28;20122;-62
2024/01/02 02:36:29;;;;;;;14.48;3.90;;;7.20;99.90;;;;;;5046478;28;20403;-63
2024/01/02 02:38:55;;;;;;;11.40;3.50;;;7.10;99.90;;;;;;5025301;28;20496;-63
2024/01/02 02:41:21;;;;;;;10.75;3.85;;;7.20;99.90;;;;;;5028869;28;20040;-63
2024/01/02 02:43:47;;;;;;;9.57;3.30;;;7.20;99.90;;;;;;5042271;28;20113;-63
2024/01/02 02:46:12;;;;;;;13.23;3.30;;;7.20;99.90;;;;;;5040635;28;20466;-63
2024/01/02 02:48:38;;;;;;;9.77;2.80;;;7.20;99.90;;;;;;5027229;28;20127;-63
2024/01/02 02:51:04;;;;;;;9.55;3.13;;;7.20;99.90;;;;;;5028097;28;20047;-63
2024/01/02 02:53:29;;;;;;;10.70;3.10;;;7.20;99.90;;;;;;5027223;28;20095;-62
2024/01/02 02:55:55;;;;;;;7.85;2.80;;;7.20;99.90;;;;;;5029970;28;20363;-63
2024/01/02 02:58:21;;;;;;;8.43;3.17;;;7.30;99.90;;;;;;5042056;28;20040;-62
2024/01/02 03:00:46;;;;;;;10.55;3.13;;;7.20;99.90;;;;;;5041500;28;20206;-63
2024/01/02 03:03:12;;;;;;;11.23;3.13;;;7.30;99.90;;;;;;5037131;28;20513;-64
2024/01/02 03:05:38;;;;;;;12.18;3.30;;;7.30;99.90;;;;;;5045052;28;20037;-63
2024/01/02 03:08:03;;;;;;;10.13;2.95;;;7.30;99.90;;;;;;5025694;28;20037;-63
2024/01/02 03:10:29;;;;;;;9.93;3.50;;;7.30;99.90;;;;;;5038492;28;20033;-63
2024/01/02 03:12:55;;;;;;;9.55;3.13;;;7.30;99.90;;;;;;5024969;28;20421;-63
2024/01/02 03:15:20;;;;;;;8.93;3.28;;;7.30;99.90;;;;;;5041838;28;20037;-62
2024/01/02 03:17:46;;;;;;;7.47;2.75;;;7.30;99.90;;;;;;5044501;28;20479;-63
2024/01/02 03:20:12;;;;;;;12.52;3.33;;;7.30;99.90;;;;;;5026794;28;20049;-63
2024/01/02 03:22:38;;;;;;;10.82;3.10;;;7.30;99.90;;;;;;5030544;28;20317;-61
2024/01/02 03:25:04;;;;;;;10.85;3.20;;;7.30;99.90;;;;;;5043093;28;20048;-62
2024/01/02 03:27:29;;;;;;;11.90;3.92;;;7.30;99.90;;;;;;5046935;28;20041;-62
2024/01/02 03:29:55;;;;;;;8.90;3.00;;;7.30;99.90;;;;;;5044236;28;20100;-62
2024/01/02 03:32:21;;;;;;;10.38;3.33;;;7.30;99.90;;;;;;5030306;28;20072;-62
2024/01/02 03:34:50;;;;;;;8.60;3.15;;;7.30;99.90;;;;;;5046982;28;20033;-63
2024/01/02 03:37:16;;;;;;;8.93;3.85;;;7.30;99.90;;;;;;5033696;28;20041;-63
2024/01/02 03:39:42;;;;;;;11.40;3.78;;;7.30;99.90;;;;;;5032907;28;20133;-64
2024/01/02 03:42:08;;;;;;;11.98;4.53;;;7.30;99.90;;;;;;5047068;28;20041;-63
2024/01/02 03:44:33;;;;;;;7.18;3.90;;;7.30;99.90;;;;;;5049839;28;20037;-62
2024/01/02 03:46:59;;;;;;;7.13;4.03;;;7.30;99.90;;;;;;5048193;28;20051;-61
2024/01/02 03:49:25;;;;;;;8.98;4.22;;;7.30;99.90;;;;;;5048883;28;20055;-62
2024/01/02 03:51:51;;;;;;;13.50;5.38;;;7.30;99.90;;;;;;5044882;28;20409;-63
2024/01/02 03:54:17;;;;;;;7.60;4.65;;;7.30;99.90;;;;;;5043565;28;20048;-63
2024/01/02 03:56:44;;;;;;;12.35;4.75;;;7.30;99.90;;;;;;5049507;28;20045;-62
2024/01/02 03:59:10;;;;;;;9.82;5.45;;;7.30;99.90;;;;;;5056905;28;20420;-61
2024/01/02 04:01:45;;;;;;;11.60;4.28;;;7.30;99.90;;;;;;5026988;28;20370;-61
2024/01/02 04:04:10;;;;;;;12.65;5.03;;;7.30;99.90;;;;;;5029950;28;20044;-59
2024/01/02 04:06:36;;;;;;;10.38;5.60;;;7.30;99.90;;;;;;5047086;28;20406;-60
2024/01/02 04:09:02;;;;;;;15.77;5.90;;;7.30;99.90;;;;;;5046020;28;20076;-59
2024/01/02 04:11:27;;;;;;;12.18;5.25;;;7.30;99.90;;;;;;5046767;28;20045;-61
2024/01/02 04:13:53;;;;;;;13.25;5.07;;;7.30;99.90;;;;;;5044976;28;20574;-61
2024/01/02 04:16:19;;;;;;;9.15;4.93;;;7.30;99.90;;;;;;5030007;28;20071;-61
2024/01/02 04:18:45;;;;;;;10.50;5.32;;;7.30;99.90;;;;;;5023695;28;20033;-61
2024/01/02 04:21:10;;;;;;;11.35;4.68;;;7.30;99.90;;;;;;5064059;28;20033;-62
2024/01/02 04:23:36;;;;;;;10.77;5.07;;;7.30;99.90;;;;;;5057167;28;20413;-61
2024/01/02 04:26:02;;;;;;;8.05;4.32;;;7.40;99.90;;;;;;5050067;28;20059;-61
2024/01/02 04:28:28;;;;;;;12.18;4.70;;;7.40;99.90;;;;;;5058144;28;20041;-61
2024/01/02 04:30:53;;;;;;;8.63;4.40;;;7.40;99.90;;;;;;5043137;28;20062;-61
2024/01/02 04:33:19;;;;;;;7.85;4.07;;;7.30;99.90;;;;;;5026111;28;20032;-61
2024/01/02 04:35:45;;;;;;;10.68;3.95;;;7.40;99.90;;;;;;5029372;28;20060;-61
2024/01/02 04:38:10;;;;;;;10.57;4.72;;;7.40;99.90;;;;;;5057679;28;20044;-61
2024/01/02 04:40:36;;;;;;;6.20;4.38;;;7.40;99.90;;;;;;5029842;28;20047;-61
2024/01/02 04:43:02;;;;;;;10.23;4.10;;;7.40;99.90;;;;;;5021875;28;20579;-61
2024/01/02 04:45:28;;;;;;;6.43;3.83;;;7.40;99.90;;;;;;5030042;28;20036;-60
2024/01/02 04:47:54;;;;;;;8.43;3.92;;;7.40;99.90;;;;;;5029327;28;20045;-61
2024/01/02 04:50:20;;;;;;;9.45;4.15;;;7.40;99.90;;;;;;5045547;28;20044;-62
2024/01/02 04:52:45;;;;;;;6.97;3.80;;;7.40;99.90;;;;;;5029134;28;20547;-60
2024/01/02 04:55:11;;;;;;;5.80;3.42;;;7.40;99.90;;;;;;5030021;28;20292;-62
2024/01/02 04:57:37;;;;;;;4.88;3.50;;;7.40;99.90;;;;;;5029606;28;20087;-61
2024/01/02 05:00:03;;;;;;;5.78;3.55;;;7.40;99.90;;;;;;5059098;28;20167;-62
2024/01/02 05:02:29;;;;;;;5.95;3.65;;;7.40;99.90;;;;;;5048552;28;20083;-60
2024/01/02 05:04:55;;;;;;;7.22;3.60;;;7.40;99.90;;;;;;5046612;28;20588;-60
2024/01/02 05:07:20;;;;;;;8.95;3.60;;;7.40;99.90;;;;;;5027211;28;20056;-61
2024/01/02 05:09:46;;;;;;;7.03;4.15;;;7.40;99.90;;;;;;5044904;28;20072;-61
2024/01/02 05:12:15;;;;;;;6.57;3.13;;;7.40;99.90;;;;;;5034937;28;20045;-61
2024/01/02 05:14:40;;;;;;;8.18;3.95;;;7.40;99.90;;;;;;5055349;28;20041;-61
2024/01/02 05:17:10;;;;;;;9.23;4.82;;;7.40;99.90;;;;;;5046172;28;20217;-61
2024/01/02 05:19:36;;;;;;;6.40;4.07;;;7.40;99.90;;;;;;5059144;28;20068;-61
2024/01/02 05:22:03;;;;;;;5.75;3.80;;;7.40;99.90;;;;;;5055527;28;20130;-61
2024/01/02 05:24:29;;;;;;;5.28;3.10;;;7.50;99.90;;;;;;5027155;28;20103;-61
2024/01/02 05:26:54;;;;;;;6.68;2.97;;;7.40;99.90;;;;;;5024035;28;20037;-61
2024/01/02 05:29:20;;;;;;;6.25;3.20;;;7.40;99.90;;;;;;5059437;28;20502;-62
2024/01/02 05:31:46;;;;;;;4.57;2.90;;;7.40;99.90;;;;;;5037027;28;20045;-62
2024/01/02 05:34:11;;;;;;;6.07;2.78;;;7.50;99.90;;;;;;5029424;28;20486;-62
2024/01/02 05:36:37;;;;;;;3.45;2.30;;;7.40;99.90;;;;;;5046345;28;20533;-62
2024/01/02 05:39:03;;;;;;;3.45;2.28;;;7.40;99.90;;;;;;5048478;28;20110;-62
2024/01/02 05:41:29;;;;;;;3.92;2.35;;;7.40;99.90;;;;;;5046203;28;20490;-62
2024/01/02 05:43:54;;;;;;;3.83;2.42;;;7.40;99.90;;;;;;5050911;28;20037;-65
2024/01/02 05:46:20;;;;;;;3.65;2.15;;;7.40;99.90;;;;;;5024735;28;20148;-61
2024/01/02 05:48:45;;;;;;;3.35;2.33;;;7.40;99.90;;;;;;5044428;28;20519;-62
2024/01/02 05:51:11;;;;;;;3.92;2.50;;;7.40;99.90;;;;;;5045454;28;20106;-62
2024/01/02 05:53:37;;;;;;;3.70;2.35;;;7.40;99.90;;;;;;5025956;28;20056;-61
2024/01/02 05:56:03;;;;;;;3.60;2.17;;;7.40;99.90;;;;;;5038367;28;20049;-61
2024/01/02 05:58:28;;;;;;;3.78;2.00;;;7.40;99.90;;;;;;5025233;28;20151;-61
2024/01/02 06:00:54;;;;;;;4.38;2.05;;;7.40;99.90;;;;;;5046528;28;20076;-62
2024/01/02 06:03:20;;;;;;;5.20;2.20;;;7.40;99.90;;;;;;5024875;28;20053;-61
2024/01/02 06:05:45;;;;;;;2.83;2.00;;;7.50;99.90;;;;;;5043471;28;20044;-62
2024/01/02 06:08:11;;;;;;;3.58;1.70;;;7.50;99.90;;;;;;5045606;28;20041;-61
2024/01/02 06:10:38;;;;;;;3.08;1.70;;;7.50;99.90;;;;;;5028046;28;20061;-61
2024/01/02 06:13:04;;;;;;;3.20;1.65;;;7.50;99.90;;;;;;5045762;28;20040;-62
2024/01/02 06:15:30;;;;;;;2.75;1.95;;;7.50;99.90;;;;;;5018840;28;20083;-62
2024/01/02 06:17:55;;;;;;;3.83;1.70;;;7.50;99.90;;;;;;5021963;28;20041;-62
2024/01/02 06:20:21;;;;;;;2.25;1.77;;;7.50;99.90;;;;;;5036681;28;20040;-61
2024/01/02 06:22:47;;;;;;;2.15;1.80;;;7.50;99.90;;;;;;5042723;28;20831;-62
2024/01/02 06:25:12;;;;;;;2.58;1.80;;;7.50;99.90;;;;;;5012655;28;20055;-62
2024/01/02 06:27:38;;;;;;;3.58;1.90;;;7.50;99.90;;;;;;5026994;28;20040;-62
2024/01/02 06:30:05;;;;;;;2.97;1.95;;;7.50;99.90;;;;;;5043759;28;20041;-62
2024/01/02 06:32:31;;;;;;;4.20;1.50;;;7.50;99.90;;;;;;5028951;28;20041;-61
2024/01/02 06:34:57;;;;;;;2.17;1.60;;;7.60;99.90;;;;;;5047243;28;20080;-62
2024/01/02 06:37:24;;;;;;;2.38;1.60;;;7.60;99.90;;;;;;5045182;28;20134;-62
2024/01/02 06:39:49;;;;;;;2.25;1.60;;;7.60;99.90;;;;;;5056430;28;20045;-62
2024/01/02 06:42:15;;;;;;;2.70;1.60;;;7.60;99.90;;;;;;5044465;28;20060;-62
2024/01/02 06:44:41;;;;;;;2.45;1.80;;;7.60;99.90;;;;;;5042744;28;20041;-62
2024/01/02 06:47:06;;;;;;;2.40;1.75;;;7.60;99.90;;;;;;5035905;28;20056;-62
2024/01/02 06:49:32;;;;;;;3.08;2.10;;;7.60;99.90;;;;;;5037025;28;20045;-62
2024/01/02 06:51:58;;;;;;;4.63;1.80;;;7.60;99.90;;;;;;5043956;28;20120;-62
2024/01/02 06:54:23;;;;;;;2.13;1.52;;;7.60;99.90;;;;;;5028292;28;20039;-61
2024/01/02 06:56:49;;;;;;;2.33;1.80;;;7.70;99.90;;;;;;5024008;28;20041;-62
2024/01/02 06:59:15;;;;;;;2.60;2.20;;;7.70;99.90;;;;;;5046811;28;20037;-62
2024/01/02 07:01:40;;;;;;;2.65;1.60;;;7.70;99.90;;;;;;5009627;28;20071;-62
2024/01/02 07:04:06;;;;;;;2.53;2.03;;;7.70;99.90;;;;;;5046609;28;20061;-62
2024/01/02 07:06:32;;;;;;;2.75;1.80;;;7.70;99.90;;;;;;5025007;28;20126;-62
2024/01/02 07:08:58;;;;;;;2.95;2.00;;;7.70;99.90;;;;;;5044309;28;20041;-62
2024/01/02 07:11:23;;;;;;;2.78;1.90;;;7.70;99.90;;;;;;5044976;28;20032;-61
2024/01/02 07:13:49;;;;;;;3.53;1.80;;;7.80;99.90;;;;;;5028893;28;20036;-61
2024/01/02 07:16:15;;;;;;;2.70;2.03;;;7.80;99.90;;;;;;5042462;28;20516;-62
2024/01/02 07:18:40;;;;;;;4.00;2.03;;;7.80;99.90;;;;;;5040293;28;20722;-62
2024/01/02 07:21:06;;;;;;;2.78;1.85;;;7.90;99.90;;;;;;5047489;28;20033;-61
2024/01/02 07:23:32;;;;;;;3.10;2.30;;;7.90;99.90;;;;;;5026268;28;20044;-62
2024/01/02 07:25:57;;;;;;;3.53;2.30;;;8.00;99.90;;;;;;5029366;28;20055;-62
2024/01/02 07:28:23;;;;;;;3.40;2.53;;;8.00;99.90;;;;;;5025296;28;20041;-62
2024/01/02 07:30:50;;;;;;;5.45;3.20;;;8.00;99.90;;;;;;5025411;28;20413;-62
2024/01/02 07:33:16;;;;;;;4.68;3.50;;;8.10;99.90;;;;;;5031347;28;20519;-61
2024/01/02 07:35:42;;;;;;;4.93;3.22;;;8.10;99.90;;;;;;5043060;28;20110;-62
2024/01/02 07:38:07;;;;;;;4.45;3.20;;;8.10;99.90;;;;;;5044028;28;20515;-62
2024/01/02 07:40:33;;;;;;;6.07;4.10;;;8.20;99.90;;;;;;5038771;28;20124;-62
2024/01/02 07:42:59;;;;;;;6.25;3.92;;;8.20;99.90;;;;;;5027029;28;20045;-62
2024/01/02 07:45:24;;;;;;;9.50;5.00;;;8.30;99.90;;;;;;5025427;28;20041;-62
2024/01/02 07:47:50;;;;;;;7.30;4.75;;;8.30;99.90;;;;;;5039147;28;20052;-62
2024/01/02 07:50:16;;;;;;;11.15;6.55;;;8.40;99.90;;;;;;5022612;28;20457;-62
2024/01/02 07:52:42;;;;;;;11.88;5.85;;;8.50;99.90;;;;;;5054956;28;20044;-62
2024/01/02 07:55:10;;;;;;;14.52;5.80;;;8.70;99.90;;;;;;5043772;28;20041;-62
2024/01/02 07:57:37;;;;;;;11.88;6.43;;;8.70;99.90;;;;;;5038581;28;20040;-62
2024/01/02 08:00:03;;;;;;;11.68;5.63;;;8.80;99.90;;;;;;5052524;28;20144;-62
2024/01/02 08:02:29;;;;;;;16.65;4.57;;;8.90;99.90;;;;;;5042523;28;20051;-62
2024/01/02 08:04:55;;;;;;;14.77;3.58;;;9.20;99.90;;;;;;5027431;28;20048;-62
2024/01/02 08:07:21;;;;;;;15.90;4.10;;;9.20;99.90;;;;;;5036369;28;20307;-62
2024/01/02 08:09:46;;;;;;;12.98;3.47;;;9.30;99.90;;;;;;5042027;28;20489;-62
2024/01/02 08:12:12;;;;;;;19.33;3.58;;;9.40;99.90;;;;;;5044923;28;20044;-62
2024/01/02 08:14:38;;;;;;;23.25;3.47;;;9.50;99.90;;;;;;5029726;28;20041;-61
2024/01/02 08:17:04;;;;;;;20.23;3.10;;;9.60;99.90;;;;;;5059083;28;20567;-62
2024/01/02 08:19:30;;;;;;;23.55;3.03;;;9.60;99.90;;;;;;5044488;28;20429;-62
2024/01/02 08:21:58;;;;;;;15.80;3.00;;;9.70;99.90;;;;;;5043713;28;20040;-62
2024/01/02 08:24:24;;;;;;;23.13;3.20;;;9.70;99.90;;;;;;5046358;28;20037;-62
2024/01/02 08:26:50;;;;;;;16.75;3.65;;;9.80;99.90;;;;;;5051813;28;20099;-62
2024/01/02 08:29:16;;;;;;;13.95;2.90;;;9.80;99.90;;;;;;5044487;28;20758;-63
2024/01/02 08:31:42;;;;;;;19.52;3.30;;;9.80;99.90;;;;;;5040109;28;20043;-62
2024/01/02 08:34:07;;;;;;;15.20;2.63;;;9.90;99.90;;;;;;5022308;28;20364;-62
2024/01/02 08:36:33;;;;;;;17.63;2.80;;;9.90;99.90;;;;;;5046336;28;20127;-62
2024/01/02 08:38:59;;;;;;;20.17;3.22;;;10.00;99.90;;;;;;5028726;28;20047;-62
2024/01/02 08:41:25;;;;;;;16.20;3.53;;;10.00;99.90;;;;;;5031259;28;20264;-62
2024/01/02 08:43:51;;;;;;;19.60;3.22;;;10.00;99.90;;;;;;5060887;28;20443;-62
2024/01/02 08:46:17;;;;;;;20.67;3.83;;;10.00;99.90;;;;;;5042692;28;20045;-62
2024/01/02 08:48:42;;;;;;;16.85;3.22;;;10.10;99.90;;;;;;5042580;28;20041;-62
2024/01/02 08:51:08;;;;;;;21.17;3.03;;;10.20;99.90;;;;;;5047253;28;20033;-62
2024/01/02 08:53:34;;;;;;;19.17;3.05;;;10.20;99.90;;;;;;5061600;28;20055;-62
2024/01/02 08:56:00;;;;;;;17.23;3.55;;;10.20;99.90;;;;;;5057240;28;20138;-62
2024/01/02 08:58:25;;;;;;;18.48;5.13;;;10.20;99.90;;;;;;5031172;28;20040;-62
2024/01/02 09:00:51;;;;;;;19.27;2.72;;;10.20;99.90;;;;;;5027754;28;20037;-62
2024/01/02 09:03:17;;;;;;;17.02;2.70;;;10.20;99.90;;;;;;5028482;28;20044;-62
2024/01/02 09:05:42;;;;;;;15.20;2.75;;;10.20;99.90;;;;;;5029974;28;20033;-62
2024/01/02 09:08:08;;;;;;;16.23;3.22;;;10.20;99.90;;;;;;5045541;28;20032;-62
2024/01/02 09:10:34;;;;;;;20.15;3.78;;;10.20;99.90;;;;;;5043464;28;20033;-62
2024/01/02 09:12:59;;;;;;;17.25;3.20;;;10.30;99.90;;;;;;5046910;28;20045;-62
2024/01/02 09:15:25;;;;;;;15.35;3.45;;;10.30;99.90;;;;;;5030104;28;20056;-62
2024/01/02 09:17:51;;;;;;;21.38;2.67;;;10.30;99.90;;;;;;5044575;28;20115;-62
2024/01/02 09:20:17;;;;;;;17.52;2.70;;;10.40;99.90;;;;;;5044320;28;20041;-62
2024/01/02 09:22:42;;;;;;;22.23;3.67;;;10.40;99.90;;;;;;5043090;28;20506;-62
2024/01/02 09:25:11;;;;;;;22.92;3.67;;;10.40;99.90;;;;;;5042589;28;20489;-62
2024/01/02 09:27:39;;;;;;;22.48;3.83;;;10.40;99.90;;;;;;5046044;28;20406;-62
2024/01/02 09:30:06;;;;;;;19.65;3.88;;;10.40;99.90;;;;;;5042579;28;20356;-62
2024/01/02 09:32:32;;;;;;;23.20;3.35;;;10.50;99.90;;;;;;5028513;28;20518;-62
2024/01/02 09:34:58;;;;;;;13.75;3.00;;;10.50;99.90;;;;;;5042753;28;20036;-62
2024/01/02 09:37:24;;;;;;;19.77;3.15;;;10.60;99.90;;;;;;5044372;28;20048;-62
2024/01/02 09:39:51;;;;;;;16.75;3.30;;;10.50;99.90;;;;;;5059331;28;20497;-62
2024/01/02 09:43:04;;;;;;;20.10;3.25;;;10.60;99.90;;;;;;5029363;28;20490;-62
2024/01/02 09:45:44;;;;;;;20.88;4.45;;;10.60;99.90;;;;;;4996939;28;20037;-62
2024/01/02 09:48:27;;;;;;;26.65;4.25;;;10.60;99.90;;;;;;5044802;28;20072;-62
2024/01/02 09:51:16;;;;;;;24.23;3.73;;;10.70;99.90;;;;;;5043264;28;20045;-62
2024/01/02 09:53:54;;;;;;;18.20;4.28;;;10.70;99.90;;;;;;5044120;28;20314;-62
2024/01/02 09:56:40;;;;;;;17.30;3.60;;;10.70;99.90;;;;;;5042213;28;20069;-62
2024/01/02 09:59:18;;;;;;;24.05;4.43;;;10.70;99.90;;;;;;5046236;28;20052;-62
2024/01/02 10:01:49;;;;;;;27.58;4.43;;;10.70;99.90;;;;;;5062730;28;20041;-62
2024/01/02 10:04:22;;;;;;;21.98;5.22;;;10.70;99.90;;;;;;5042089;28;20098;-62
2024/01/02 10:07:01;;;;;;;30.95;4.63;;;10.80;99.90;;;;;;5041063;28;20082;-62
2024/01/02 10:09:53;;;;;;;22.80;4.25;;;10.80;99.90;;;;;;5044117;28;20049;-62
2024/01/02 10:12:37;;;;;;;26.58;4.47;;;10.80;99.90;;;;;;5044123;28;20041;-62
2024/01/02 10:15:26;;;;;;;29.05;5.97;;;10.80;99.90;;;;;;5059066;28;20489;-62
2024/01/02 10:18:08;;;;;;;22.77;4.25;;;10.80;99.90;;;;;;5007918;28;20052;-62
2024/01/02 10:21:16;;;;;;;27.98;4.55;;;10.90;99.90;;;;;;5046337;28;20044;-62
2024/01/02 10:24:18;;;;;;;24.35;3.83;;;10.90;99.90;;;;;;4956742;28;20380;-62
2024/01/02 10:27:08;;;;;;;25.27;4.32;;;11.00;99.90;;;;;;4999509;28;20045;-62
2024/01/02 10:30:02;;;;;;;27.63;4.80;;;11.00;99.90;;;;;;5043604;28;20045;-62
2024/01/02 10:33:04;;;;;;;20.85;4.50;;;11.00;99.90;;;;;;5027318;28;20135;-62
2024/01/02 10:35:37;;;;;;;22.00;4.40;;;11.00;99.90;;;;;;5008423;28;20053;-62
2024/01/02 10:38:15;;;;;;;24.80;4.40;;;11.10;99.90;;;;;;5046996;28;20049;-62
2024/01/02 10:40:46;;;;;;;29.30;4.40;;;11.10;99.90;;;;;;5043603;28;20590;-62
2024/01/02 10:43:26;;;;;;;26.60;5.10;;;11.00;99.90;;;;;;5057078;28;20094;-62
2024/01/02 10:46:04;;;;;;;27.52;5.63;;;11.10;99.90;;;;;;5057977;28;20494;-62
2024/01/02 10:49:22;;;;;;;24.10;4.50;;;11.10;99.90;;;;;;5043568;28;20048;-62
2024/01/02 10:52:00;;;;;;;22.38;3.42;;;11.10;99.90;;;;;;4989446;28;20069;-62
2024/01/02 10:54:47;;;;;;;31.88;4.90;;;11.10;99.90;;;;;;4974107;28;20503;-62
2024/01/02 10:57:24;;;;;;;25.02;4.82;;;11.10;99.90;;;;;;5015352;28;20084;-62
2024/01/02 11:00:10;;;;;;;21.60;4.15;;;11.20;99.90;;;;;;5041471;28;20120;-62
2024/01/02 11:02:59;;;;;;;19.90;3.55;;;11.20;99.90;;;;;;5044606;28;20124;-62
2024/01/02 11:05:45;;;;;;;19.05;3.65;;;11.20;99.90;;;;;;5060768;28;20045;-62
2024/01/02 11:08:40;;;;;;;18.77;3.78;;;11.20;99.90;;;;;;5059028;28;20037;-62
2024/01/02 11:11:09;;;;;;;23.08;4.57;;;11.20;99.90;;;;;;5046508;28;20425;-62
2024/01/02 11:13:39;;;;;;;26.70;3.75;;;11.20;99.90;;;;;;5024365;28;20144;-62
2024/01/02 11:16:17;;;;;;;22.63;3.50;;;11.20;99.90;;;;;;5037696;28;20133;-62
2024/01/02 11:18:47;;;;;;;23.85;3.65;;;11.20;99.90;;;;;;5038294;28;20045;-62
2024/01/02 11:21:46;;;;;;;19.35;3.80;;;11.20;99.90;;;;;;5023582;28;20033;-62
2024/01/02 11:24:15;;;;;;;26.45;3.95;;;11.30;99.90;;;;;;5037867;28;20523;-64
2024/01/02 11:26:44;;;;;;;16.88;3.65;;;11.30;99.90;;;;;;5024119;28;20053;-62
2024/01/02 11:29:21;;;;;;;21.02;3.80;;;11.30;99.90;;;;;;5056616;28;20053;-62
2024/01/02 11:31:49;;;;;;;26.48;4.20;;;11.30;99.90;;;;;;5025666;28;20041;-62
2024/01/02 11:34:59;;;;;;;21.42;4.53;;;11.20;99.90;;;;;;5034136;28;20035;-62
2024/01/02 11:37:40;;;;;;;18.00;4.20;;;11.30;99.90;;;;;;5038920;28;20087;-62
2024/01/02 11:40:48;;;;;;;18.77;3.55;;;11.20;99.90;;;;;;5041113;28;20086;-63
2024/01/02 11:43:49;;;;;;;21.08;4.00;;;11.20;99.90;;;;;;5005087;28;20125;-62
2024/01/02 11:46:16;;;;;;;18.30;4.05;;;11.20;99.90;;;;;;5002425;28;20486;-62
2024/01/02 11:48:57;;;;;;;20.13;4.43;;;11.20;99.90;;;;;;5047552;28;20078;-62
2024/01/02 11:51:28;;;;;;;26.45;4.40;;;11.20;99.90;;;;;;5047251;28;20537;-62
2024/01/02 11:54:16;;;;;;;25.55;4.25;;;11.20;99.90;;;;;;5045119;28;20525;-62
2024/01/02 11:56:42;;;;;;;18.55;3.25;;;11.20;99.90;;;;;;5031423;28;20049;-62
2024/01/02 11:59:26;;;;;;;24.65;4.10;;;11.20;99.90;;;;;;5044037;28;20041;-62
2024/01/02 12:02:01;;;;;;;;;;;11.20;99.90;;;;;;5044231;28;20045;-62
2024/01/02 12:04:52;;;;;;;28.70;5.35;;;11.30;99.90;;;;;;5045059;28;20094;-62
2024/01/02 12:07:28;;;;;;;22.27;4.80;;;11.20;99.90;;;;;;5061560;28;20037;-62
2024/01/02 12:09:56;;;;;;;23.80;4.65;;;11.20;99.90;;;;;;5029534;28;20075;-62
2024/01/02 12:12:50;;;;;;;28.58;5.45;;;11.20;99.90;;;;;;5056565;28;20083;-62
2024/01/02 12:15:32;;;;;;;28.60;4.97;;;11.20;99.90;;;;;;5063047;28;20032;-62
2024/01/02 12:18:06;;;;;;;35.67;6.18;;;11.20;99.90;;;;;;5057162;28;20733;-62
2024/01/02 12:20:44;;;;;;;32.08;5.68;;;11.20;99.90;;;;;;5029598;28;20067;-62
2024/01/02 12:23:12;;;;;;;30.08;4.93;;;11.20;99.90;;;;;;5046361;28;20033;-62
2024/01/02 12:25:42;;;;;;;37.80;6.68;;;11.20;99.90;;;;;;5044354;28;20116;-62
2024/01/02 12:28:09;;;;;;;35.55;6.07;;;11.20;99.90;;;;;;5044185;28;20571;-62
2024/01/02 12:30:46;;;;;;;27.25;5.72;;;11.20;99.90;;;;;;5044712;28;20091;-62
2024/01/02 12:33:34;;;;;;;33.92;5.93;;;11.20;99.90;;;;;;5043770;28;20352;-62
2024/01/02 12:36:18;;;;;;;30.33;6.88;;;11.20;99.90;;;;;;5048047;28;20279;-62
2024/01/02 12:39:00;;;;;;;33.20;6.53;;;11.20;99.90;;;;;;5059252;28;20038;-62
2024/01/02 12:41:28;;;;;;;34.30;6.88;;;11.20;99.90;;;;;;5045192;28;20040;-62
2024/01/02 12:43:58;;;;;;;33.10;6.20;;;11.20;99.90;;;;;;5042166;28;20451;-62
2024/01/02 12:46:58;;;;;;;36.78;6.63;;;11.20;99.90;;;;;;5025779;28;20041;-62
2024/01/02 12:49:27;;;;;;;36.42;7.22;;;11.10;99.90;;;;;;5042665;28;20082;-62
2024/01/02 12:52:03;;;;;;;36.60;6.63;;;11.10;99.90;;;;;;5045237;28;20052;-62
2024/01/02 12:54:30;;;;;;;30.85;6.30;;;11.10;99.90;;;;;;5042109;28;20486;-62
2024/01/02 12:57:01;;;;;;;30.92;6.50;;;11.10;99.90;;;;;;5044991;28;20119;-62
2024/01/02 12:59:29;;;;;;;36.45;7.45;;;11.10;99.90;;;;;;5046111;28;20604;-62